Time;durP1;ratioP1;P1;durP2;ratioP2;P2;SDS_P1;SDS_P2;PMS_P1;PMS_P2;Temp;Humidity;BMP_temperature;BMP_pressure;BME280_temperature;BME280_humidity;BME280_pressure;Samples;Min_cycle;Max_cycle;Signal;HPM_P1;HPM_P2
2022/06/16 03:35:18;;;;;;;4.05;2.15;;;17.50;65.60;;;;;;4730792;30;20115;-75
2022/06/16 03:37:44;;;;;;;2.58;1.52;;;17.60;65.90;;;;;;4723662;30;20060;-76
2022/06/16 03:40:13;;;;;;;3.50;1.77;;;17.50;65.90;;;;;;4738393;30;20083;-77
2022/06/16 03:42:40;;;;;;;3.08;1.45;;;17.60;66.10;;;;;;4739233;30;20064;-76
2022/06/16 03:45:07;;;;;;;3.53;1.80;;;17.60;66.10;;;;;;4739858;30;20049;-78
2022/06/16 03:47:33;;;;;;;3.50;1.58;;;17.70;66.40;;;;;;4748445;30;20440;-75
2022/06/16 03:49:59;;;;;;;3.85;1.70;;;17.70;66.60;;;;;;4757155;30;20123;-78
2022/06/16 03:52:24;;;;;;;4.13;1.55;;;17.80;66.70;;;;;;4741799;30;20040;-75
2022/06/16 03:54:51;;;;;;;5.25;1.88;;;17.80;67.00;;;;;;4739265;30;20091;-78
2022/06/16 03:57:17;;;;;;;5.35;1.90;;;17.90;67.30;;;;;;4752477;30;20060;-80
2022/06/16 03:59:43;;;;;;;5.82;1.75;;;17.90;67.20;;;;;;4738011;30;20060;-79
2022/06/16 04:02:09;;;;;;;4.40;1.50;;;18.00;67.20;;;;;;4756151;30;20040;-79
2022/06/16 04:04:35;;;;;;;3.67;1.40;;;18.00;67.40;;;;;;4753141;30;20203;-79
2022/06/16 04:07:01;;;;;;;5.63;1.60;;;18.00;67.60;;;;;;4767381;30;20346;-78
2022/06/16 04:09:27;;;;;;;3.80;1.60;;;18.10;67.50;;;;;;4747867;30;20048;-79
2022/06/16 04:11:52;;;;;;;2.95;1.38;;;18.10;67.50;;;;;;4738897;30;20053;-78
2022/06/16 04:14:18;;;;;;;6.15;1.83;;;18.20;67.50;;;;;;4737780;30;20491;-79
2022/06/16 04:16:51;;;;;;;2.83;1.20;;;18.20;67.30;;;;;;4723422;30;20079;-79
2022/06/16 04:19:19;;;;;;;;;;;18.20;67.80;;;;;;4752964;30;20064;-79
2022/06/16 04:21:46;;;;;;;3.17;1.15;;;18.20;67.00;;;;;;4767221;30;20394;-79
2022/06/16 04:24:13;;;;;;;2.45;1.13;;;18.20;67.10;;;;;;4738682;30;20165;-77
2022/06/16 04:26:40;;;;;;;3.33;1.10;;;18.30;67.10;;;;;;4738561;30;20056;-79
2022/06/16 04:29:08;;;;;;;5.43;1.13;;;18.30;67.10;;;;;;4737998;30;20060;-77
2022/06/16 04:31:34;;;;;;;3.47;1.25;;;18.30;67.00;;;;;;4737702;30;20057;-73
2022/06/16 04:34:00;;;;;;;1.90;1.35;;;18.30;66.90;;;;;;4739166;30;20064;-78
2022/06/16 04:36:26;;;;;;;4.60;1.30;;;18.30;67.00;;;;;;4738854;30;20424;-75
2022/06/16 04:38:55;;;;;;;4.30;1.67;;;18.40;66.90;;;;;;4736776;30;20110;-80
2022/06/16 04:41:24;;;;;;;3.08;1.48;;;18.40;67.30;;;;;;4719742;30;20045;-82
2022/06/16 04:43:52;;;;;;;7.07;1.90;;;18.50;67.50;;;;;;4719644;30;20049;-81
2022/06/16 04:46:20;;;;;;;4.68;1.60;;;18.50;67.00;;;;;;4719813;30;20068;-82
2022/06/16 04:52:18;;;;;;;1.98;1.10;;;18.50;66.20;;;;;;4739537;30;20118;-82
2022/06/16 04:55:06;;;;;;;5.68;1.30;;;18.40;65.90;;;;;;4737604;30;20385;-82
2022/06/16 04:57:54;;;;;;;5.82;1.48;;;18.30;65.90;;;;;;4736268;30;20049;-81
2022/06/16 05:00:54;;;;;;;2.72;1.13;;;18.30;66.20;;;;;;4737465;30;20058;-82
2022/06/16 05:03:55;;;;;;;;;;;;;;;;;;;;;
2022/06/16 05:07:01;;;;;;;1.75;1.27;;;18.20;65.80;;;;;;4718502;30;20065;-82
2022/06/16 05:09:28;;;;;;;5.03;1.60;;;18.00;66.40;;;;;;4720899;30;20056;-81
2022/06/16 05:11:58;;;;;;;3.10;1.20;;;17.90;67.20;;;;;;4737234;30;20041;-81
2022/06/16 05:14:24;;;;;;;4.38;1.55;;;17.90;67.70;;;;;;4736702;30;20128;-78
2022/06/16 05:16:51;;;;;;;2.72;1.38;;;17.90;68.00;;;;;;4752133;30;20528;-79
2022/06/16 05:19:17;;;;;;;2.88;1.55;;;17.90;68.20;;;;;;4737181;30;20106;-79
2022/06/16 05:21:43;;;;;;;4.38;1.17;;;17.90;68.10;;;;;;4721906;30;20076;-80
2022/06/16 05:24:12;;;;;;;3.92;1.48;;;17.90;68.00;;;;;;4737334;30;20111;-76
2022/06/16 05:26:37;;;;;;;5.70;1.25;;;17.90;68.20;;;;;;4722226;30;20040;-79
2022/06/16 05:29:03;;;;;;;4.60;1.80;;;17.90;68.00;;;;;;4737583;30;20060;-78
2022/06/16 05:31:31;;;;;;;3.17;1.48;;;17.90;68.10;;;;;;4737129;30;20040;-77
2022/06/16 05:33:57;;;;;;;3.95;1.45;;;17.90;67.80;;;;;;4737788;30;20482;-78
2022/06/16 05:36:23;;;;;;;4.20;1.65;;;17.90;67.60;;;;;;4737461;30;20135;-77
2022/06/16 05:38:49;;;;;;;4.40;1.40;;;17.90;67.20;;;;;;4751226;30;20507;-77
2022/06/16 05:41:16;;;;;;;3.83;1.52;;;17.90;66.70;;;;;;4736845;30;20064;-79
2022/06/16 05:43:46;;;;;;;4.25;1.77;;;17.90;66.40;;;;;;4737271;30;20067;-77
2022/06/16 05:46:18;;;;;;;4.57;1.90;;;17.90;66.40;;;;;;4722160;30;20056;-79
2022/06/16 05:48:44;;;;;;;4.88;1.80;;;17.90;66.40;;;;;;4736695;30;20427;-76
2022/06/16 05:51:11;;;;;;;4.85;1.95;;;17.90;66.10;;;;;;4736872;30;20048;-77
2022/06/16 05:53:38;;;;;;;6.03;2.00;;;17.90;65.70;;;;;;4736972;30;20477;-77
2022/06/16 05:56:04;;;;;;;4.45;1.95;;;17.90;65.80;;;;;;4751099;30;20103;-78
2022/06/16 05:58:30;;;;;;;5.45;1.90;;;17.90;65.90;;;;;;4736627;30;20126;-79
2022/06/16 06:00:56;;;;;;;7.25;1.95;;;18.00;65.80;;;;;;4736837;30;20049;-78
2022/06/16 06:03:22;;;;;;;5.45;2.05;;;18.00;65.70;;;;;;4736721;30;20453;-77
2022/06/16 06:05:47;;;;;;;15.30;2.08;;;18.10;65.70;;;;;;4736589;30;20551;-77
2022/06/16 06:16:29;;;;;;;4.47;1.77;;;18.20;65.60;;;;;;4736981;30;20365;-79
2022/06/16 06:19:45;;;;;;;6.38;1.50;;;18.30;65.30;;;;;;4750587;30;20056;-80
2022/06/16 06:22:06;;;;;;;4.80;1.70;;;18.30;64.40;;;;;;4726466;30;20060;-79
2022/06/16 06:24:44;;;;;;;5.80;1.65;;;18.30;63.70;;;;;;4743190;30;20408;-81
2022/06/16 06:27:17;;;;;;;3.70;1.38;;;18.30;63.20;;;;;;4721431;30;20045;-80
2022/06/16 06:29:44;;;;;;;4.20;1.25;;;18.40;62.70;;;;;;4721388;30;20057;-80
2022/06/16 06:32:11;;;;;;;3.17;1.42;;;18.40;61.70;;;;;;4736395;30;20372;-80
2022/06/16 06:34:39;;;;;;;2.90;1.42;;;18.30;60.80;;;;;;4728515;30;20076;-80
2022/06/16 06:37:06;;;;;;;8.65;1.65;;;18.30;60.40;;;;;;4735914;30;20377;-81
2022/06/16 06:39:32;;;;;;;4.85;1.65;;;18.30;61.20;;;;;;4735879;30;20048;-81
2022/06/16 06:42:08;;;;;;;3.33;1.42;;;18.30;60.20;;;;;;4750446;30;20059;-81
2022/06/16 06:44:41;;;;;;;5.32;1.52;;;18.30;60.30;;;;;;4742915;30;20052;-81
2022/06/16 06:48:03;;;;;;;3.75;1.35;;;18.30;60.70;;;;;;4736025;30;20048;-80
2022/06/16 06:50:59;;;;;;;6.00;1.50;;;18.40;61.10;;;;;;4664536;30;20133;-79
2022/06/16 06:53:25;;;;;;;4.43;1.20;;;18.40;61.20;;;;;;4676764;30;20092;-77
2022/06/16 06:55:50;;;;;;;2.65;1.30;;;18.50;61.40;;;;;;4728922;30;20524;-78
2022/06/16 06:58:22;;;;;;;4.38;1.50;;;18.60;61.50;;;;;;4746296;30;20644;-78
2022/06/16 07:00:53;;;;;;;4.97;1.33;;;18.60;61.30;;;;;;4736209;30;20131;-79
2022/06/16 07:03:22;;;;;;;4.97;1.60;;;18.60;61.40;;;;;;4753255;30;20400;-78
2022/06/16 07:05:48;;;;;;;4.13;1.30;;;18.70;61.30;;;;;;4739522;30;20052;-76
2022/06/16 07:08:15;;;;;;;3.53;0.93;;;18.70;61.60;;;;;;4739755;30;20118;-82
2022/06/16 07:10:58;;;;;;;9.75;1.33;;;18.80;61.90;;;;;;4738835;30;20052;-81
2022/06/16 07:13:30;;;;;;;5.43;1.38;;;18.80;61.80;;;;;;4724761;30;20140;-80
2022/06/16 07:16:08;;;;;;;6.68;1.90;;;18.90;61.80;;;;;;4709316;30;20476;-81
2022/06/16 07:19:01;;;;;;;6.28;1.15;;;18.90;61.70;;;;;;4753442;30;20131;-81
2022/06/16 07:21:46;;;;;;;5.15;1.15;;;18.90;61.60;;;;;;4739412;30;20110;-80
2022/06/16 07:24:29;;;;;;;6.68;1.80;;;18.90;61.60;;;;;;4738462;30;20147;-81
2022/06/16 07:27:25;;;;;;;;;;;;;;;;;;;;;
2022/06/16 07:30:01;;;;;;;4.32;1.08;;;19.00;62.10;;;;;;4739653;30;20041;-80
2022/06/16 07:32:27;;;;;;;2.22;1.17;;;19.10;61.90;;;;;;4738983;30;20047;-79
2022/06/16 07:34:53;;;;;;;2.92;1.23;;;19.10;62.00;;;;;;4752833;30;20134;-79
2022/06/16 07:37:19;;;;;;;4.20;1.00;;;19.10;62.40;;;;;;4752947;30;20118;-79
2022/06/16 07:39:45;;;;;;;4.15;1.17;;;19.20;62.80;;;;;;4753591;30;20060;-77
2022/06/16 07:42:11;;;;;;;6.40;1.60;;;19.20;63.20;;;;;;4739696;30;20068;-78
2022/06/16 07:44:37;;;;;;;2.22;1.17;;;19.20;63.30;;;;;;4753860;30;20356;-79
2022/06/16 07:47:05;;;;;;;5.00;1.55;;;19.30;63.60;;;;;;4739096;30;20114;-80
2022/06/16 07:49:31;;;;;;;5.50;1.60;;;19.30;63.50;;;;;;4739045;30;20056;-79
2022/06/16 07:51:59;;;;;;;6.78;1.80;;;19.30;63.60;;;;;;4739419;30;20395;-80
2022/06/16 07:54:25;;;;;;;4.15;1.20;;;19.30;63.70;;;;;;4738415;30;20086;-79
2022/06/16 07:56:51;;;;;;;3.17;0.95;;;19.40;64.50;;;;;;4752952;30;20049;-79
2022/06/16 07:59:17;;;;;;;4.47;1.13;;;19.40;63.80;;;;;;4724045;30;20056;-79
2022/06/16 08:01:43;;;;;;;2.70;1.10;;;19.40;63.80;;;;;;4737345;30;20500;-79
2022/06/16 08:04:09;;;;;;;2.35;1.35;;;19.50;63.80;;;;;;4739392;30;20441;-78
2022/06/16 08:06:36;;;;;;;2.47;1.20;;;19.50;63.90;;;;;;4738313;30;20105;-79
2022/06/16 08:09:04;;;;;;;2.33;1.42;;;19.50;63.90;;;;;;4723579;30;20502;-79
2022/06/16 08:14:14;;;;;;;2.85;1.20;;;19.50;63.80;;;;;;4738239;30;20064;-79
2022/06/16 08:16:40;;;;;;;3.50;1.20;;;19.50;64.00;;;;;;4723506;30;20068;-79
2022/06/16 08:19:06;;;;;;;3.10;0.93;;;19.60;63.90;;;;;;4738677;30;20208;-79
2022/06/16 08:21:32;;;;;;;2.65;1.00;;;19.60;64.10;;;;;;4738894;30;20135;-80
2022/06/16 08:23:58;;;;;;;4.00;0.93;;;19.60;64.10;;;;;;4752500;30;20139;-78
2022/06/16 08:26:24;;;;;;;3.10;1.20;;;19.60;64.00;;;;;;4752363;30;20102;-78
2022/06/16 08:28:53;;;;;;;3.38;1.50;;;19.60;63.90;;;;;;4767441;30;20380;-79
2022/06/16 08:31:20;;;;;;;4.18;0.80;;;19.60;64.10;;;;;;4723726;30;20056;-78
2022/06/16 08:33:47;;;;;;;3.97;1.08;;;19.70;64.30;;;;;;4738715;30;20053;-79
2022/06/16 08:36:32;;;;;;;3.50;0.90;;;19.70;64.40;;;;;;4722136;30;20097;-80
2022/06/16 08:39:29;;;;;;;4.53;1.30;;;19.70;64.70;;;;;;4737497;30;20384;-82
2022/06/16 08:42:20;;;;;;;6.40;1.45;;;19.70;64.70;;;;;;4708954;30;20045;-78
2022/06/16 08:45:05;;;;;;;5.88;1.48;;;19.80;64.60;;;;;;4738208;30;20067;-79
2022/06/16 08:47:36;;;;;;;4.50;1.00;;;19.70;64.70;;;;;;4766754;30;20138;-79
2022/06/16 08:50:14;;;;;;;4.55;1.17;;;19.80;64.70;;;;;;4766848;30;20121;-79
2022/06/16 08:53:25;;;;;;;4.10;1.10;;;19.80;64.80;;;;;;4738368;30;20074;-78
2022/06/16 08:55:58;;;;;;;4.00;1.27;;;19.80;64.90;;;;;;4723251;30;20486;-78
2022/06/16 08:59:02;;;;;;;2.90;0.82;;;19.80;64.70;;;;;;4751896;30;20521;-78
2022/06/16 09:01:35;;;;;;;2.05;0.93;;;19.90;64.90;;;;;;4737631;30;20118;-79
2022/06/16 09:04:17;;;;;;;4.25;1.20;;;19.90;64.70;;;;;;4751754;30;20129;-79
2022/06/16 09:07:07;;;;;;;3.70;1.20;;;19.90;64.70;;;;;;4722555;30;20052;-80
2022/06/16 09:12:34;;;;;;;2.33;1.13;;;19.90;65.40;;;;;;4737316;30;20064;-80
2022/06/16 09:15:13;;;;;;;3.95;1.25;;;19.90;64.60;;;;;;4737683;30;20121;-79
2022/06/16 09:17:42;;;;;;;3.83;1.25;;;19.90;64.20;;;;;;4737623;30;20083;-77
2022/06/16 09:20:23;;;;;;;2.50;1.00;;;20.00;64.30;;;;;;4737370;30;20126;-76
2022/06/16 09:23:08;;;;;;;4.32;1.45;;;20.00;64.40;;;;;;4751947;30;20457;-77
2022/06/16 09:25:52;;;;;;;2.78;1.00;;;20.00;64.80;;;;;;4736754;30;20060;-76
2022/06/16 09:28:27;;;;;;;4.20;1.10;;;20.00;64.60;;;;;;4737797;30;20064;-77
2022/06/16 09:31:33;;;;;;;2.83;1.00;;;20.00;64.60;;;;;;4737532;30;20075;-84
2022/06/16 09:34:28;;;;;;;6.85;1.05;;;20.10;64.90;;;;;;4736395;30;20044;-84
2022/06/16 09:38:02;;;;;;;2.78;0.90;;;20.10;64.90;;;;;;4715722;30;20052;-85
2022/06/16 11:38:00;;;;;;;2.40;0.98;;;20.20;64.20;;;;;;5358735;24;20051;-79
2022/06/16 11:40:36;;;;;;;2.33;1.00;;;20.20;64.30;;;;;;4770754;30;20607;-80
2022/06/16 11:43:13;;;;;;;1.10;0.80;;;20.20;64.40;;;;;;4741035;30;20047;-82
2022/06/16 11:45:53;;;;;;;3.30;1.40;;;20.20;64.40;;;;;;4741609;30;20140;-81
2022/06/16 11:48:27;;;;;;;2.55;1.05;;;20.30;64.30;;;;;;4757508;30;20134;-82
2022/06/16 11:51:09;;;;;;;2.53;1.33;;;20.30;64.20;;;;;;4774228;30;20087;-80
2022/06/16 11:53:53;;;;;;;1.92;1.30;;;20.30;64.00;;;;;;4758673;30;20051;-83
2022/06/16 11:56:54;;;;;;;2.00;1.25;;;20.30;63.30;;;;;;4774597;30;20347;-80
2022/06/16 12:00:06;;;;;;;1.92;1.10;;;20.30;63.40;;;;;;4771280;30;20093;-82
2022/06/16 12:03:17;;;;;;;2.47;1.25;;;20.30;63.40;;;;;;4771226;30;20051;-82
2022/06/16 12:06:14;;;;;;;1.98;1.15;;;20.30;63.60;;;;;;4741604;30;20063;-81
2022/06/16 12:09:01;;;;;;;2.38;1.40;;;20.30;63.60;;;;;;4727607;30;20055;-81
2022/06/16 12:11:33;;;;;;;1.85;1.10;;;20.30;64.30;;;;;;4772361;30;20107;-84
2022/06/16 12:14:08;;;;;;;2.85;1.80;;;20.30;63.70;;;;;;4758870;30;20079;-83
2022/06/16 12:16:52;;;;;;;2.42;1.60;;;20.30;63.80;;;;;;4743463;30;20040;-83
2022/06/16 12:19:37;;;;;;;2.33;1.60;;;20.30;63.80;;;;;;4742708;30;20190;-80
2022/06/16 12:22:25;;;;;;;1.30;1.20;;;20.30;63.90;;;;;;4758498;30;20322;-81
2022/06/16 12:25:11;;;;;;;2.00;1.30;;;20.40;63.90;;;;;;4743307;30;20067;-80
2022/06/16 12:28:04;;;;;;;24.23;3.78;;;20.30;63.60;;;;;;4773977;30;20336;-78
2022/06/16 12:30:40;;;;;;;3.67;1.80;;;20.30;64.00;;;;;;4755987;30;20048;-78
2022/06/16 12:33:16;;;;;;;5.53;1.70;;;20.40;64.30;;;;;;4756322;30;20126;-80
2022/06/16 12:36:06;;;;;;;3.65;1.33;;;20.40;64.40;;;;;;4756408;30;20051;-78
2022/06/16 12:38:55;;;;;;;8.88;1.83;;;20.40;64.50;;;;;;4755764;30;20349;-82
2022/06/16 12:41:29;;;;;;;6.45;1.70;;;20.40;64.50;;;;;;4748252;30;20471;-79
2022/06/16 12:44:02;;;;;;;6.45;1.83;;;20.40;64.40;;;;;;4773438;30;20059;-78
2022/06/16 12:46:35;;;;;;;9.07;2.00;;;20.40;64.50;;;;;;4774002;30;20515;-82
2022/06/16 12:49:16;;;;;;;;;;;20.40;64.10;;;;;;4758769;30;20062;-84
2022/06/16 12:52:00;;;;;;;12.32;2.70;;;20.40;64.10;;;;;;4757947;30;19917;-84
2022/06/16 12:54:40;;;;;;;10.02;2.28;;;20.40;64.20;;;;;;4773834;30;20082;-77
2022/06/16 12:57:14;;;;;;;13.05;2.75;;;20.30;64.30;;;;;;4773508;30;20182;-80
2022/06/16 12:59:59;;;;;;;8.35;2.25;;;20.40;63.70;;;;;;4743265;30;20063;-83
2022/06/16 13:02:34;;;;;;;8.23;2.05;;;20.40;64.00;;;;;;4758073;30;20082;-81
2022/06/16 13:05:08;;;;;;;8.73;3.40;;;20.40;63.70;;;;;;4757760;30;20031;-82
2022/06/16 13:07:41;;;;;;;10.38;2.03;;;20.40;63.60;;;;;;4743104;30;20048;-86
2022/06/16 13:10:09;;;;;;;11.13;2.17;;;20.40;63.70;;;;;;4743376;30;20490;-83
2022/06/16 13:17:22;;;;;;;11.45;3.10;;;20.40;63.90;;;;;;4685394;30;20080;-84
2022/06/16 13:20:17;;;;;;;7.95;2.35;;;20.40;64.00;;;;;;4700390;30;20093;-85
2022/06/16 13:23:11;;;;;;;6.78;2.13;;;20.40;63.50;;;;;;4703738;30;20102;-85
2022/06/16 13:25:52;;;;;;;6.20;2.60;;;20.40;63.80;;;;;;4663494;30;20080;-86
2022/06/16 13:28:56;;;;;;;4.30;2.58;;;20.40;63.40;;;;;;4756741;30;20201;-87
2022/06/16 13:32:00;;;;;;;8.88;2.20;;;20.40;63.50;;;;;;4772798;30;20047;-85
2022/06/16 13:35:08;;;;;;;5.50;2.28;;;20.40;63.20;;;;;;4748476;30;20052;-86
2022/06/16 13:38:17;;;;;;;5.82;2.30;;;20.50;63.90;;;;;;4756616;29;20063;-86
2022/06/16 13:42:12;;;;;;;;;;;;;;;;;;;;;
2022/06/16 13:45:59;;;;;;;5.60;2.22;;;20.50;63.90;;;;;;4739107;30;20048;-86
2022/06/16 13:49:09;;;;;;;5.18;1.80;;;20.50;63.60;;;;;;4690242;30;20064;-86
2022/06/16 13:56:01;;;;;;;5.97;2.10;;;20.50;64.40;;;;;;4719675;30;20547;-85
2022/06/16 13:59:07;;;;;;;7.07;1.98;;;20.50;64.60;;;;;;4742646;30;20058;-84
2022/06/16 14:01:33;;;;;;;8.70;2.35;;;20.50;64.30;;;;;;4772367;30;20040;-84
2022/06/16 14:04:01;;;;;;;8.60;2.25;;;20.60;64.30;;;;;;4756540;30;20048;-77
2022/06/16 14:06:32;;;;;;;11.10;2.67;;;20.60;64.50;;;;;;4756543;30;20052;-78
2022/06/16 14:09:08;;;;;;;14.68;3.33;;;20.60;64.60;;;;;;4772301;30;20460;-83
2022/06/16 14:11:39;;;;;;;10.57;2.83;;;20.60;64.60;;;;;;4742044;30;20406;-79
2022/06/16 14:14:20;;;;;;;25.88;18.27;;;20.60;64.60;;;;;;4771428;30;20051;-82
2022/06/16 14:16:54;;;;;;;17.00;11.55;;;20.60;65.70;;;;;;4756342;30;20351;-85
2022/06/16 14:19:44;;;;;;;13.52;5.78;;;20.70;66.60;;;;;;4770996;30;20138;-88
2022/06/16 14:22:21;;;;;;;10.88;3.95;;;20.70;66.80;;;;;;4772317;30;20044;-85
2022/06/16 14:25:00;;;;;;;15.60;3.97;;;20.70;66.20;;;;;;4771406;30;20043;-83
2022/06/16 14:27:49;;;;;;;9.85;3.80;;;20.70;66.90;;;;;;4771092;30;20167;-84
2022/06/16 14:30:33;;;;;;;12.15;3.65;;;20.70;67.10;;;;;;4771986;30;20047;-84
2022/06/16 14:33:09;;;;;;;12.50;3.70;;;20.70;67.10;;;;;;4742389;30;20135;-82
2022/06/16 14:36:08;;;;;;;12.70;3.28;;;20.80;67.60;;;;;;4741846;30;20048;-74
2022/06/16 14:38:54;;;;;;;9.77;2.78;;;20.80;68.10;;;;;;4741310;30;20098;-82
2022/06/16 14:41:35;;;;;;;12.98;3.67;;;20.90;67.60;;;;;;4741747;30;20051;-82
2022/06/16 14:44:30;;;;;;;15.07;4.72;;;20.90;67.90;;;;;;4772009;30;20075;-80
2022/06/16 14:46:56;;;;;;;12.52;3.30;;;20.90;68.60;;;;;;4741625;30;20039;-82
2022/06/16 14:49:37;;;;;;;10.27;3.55;;;20.90;67.80;;;;;;4756128;30;20047;-84
2022/06/16 14:52:05;;;;;;;9.05;3.17;;;21.00;65.70;;;;;;4741443;30;20043;-82
2022/06/16 14:54:39;;;;;;;10.32;3.15;;;21.00;64.40;;;;;;4756769;30;20051;-83
2022/06/16 14:57:06;;;;;;;7.38;2.72;;;21.00;63.30;;;;;;4741876;30;20351;-82
2022/06/16 14:59:36;;;;;;;7.88;2.63;;;21.00;62.90;;;;;;4741510;30;20040;-84
2022/06/16 15:02:05;;;;;;;4.25;2.67;;;21.00;62.00;;;;;;4756233;30;20329;-83
2022/06/16 15:04:35;;;;;;;7.13;2.88;;;21.00;61.90;;;;;;4756011;30;20035;-84
2022/06/16 15:07:02;;;;;;;7.38;2.60;;;21.00;62.10;;;;;;4756198;30;20106;-80
2022/06/16 15:09:32;;;;;;;8.57;2.90;;;21.10;63.00;;;;;;4756144;30;20428;-79
2022/06/16 15:12:00;;;;;;;5.40;2.83;;;21.10;62.00;;;;;;4756045;30;20452;-80
2022/06/16 15:14:27;;;;;;;4.60;2.47;;;21.10;62.40;;;;;;4770959;30;20051;-80
2022/06/16 15:19:44;;;;;;;7.05;2.53;;;21.10;63.40;;;;;;4755955;30;20051;-81
2022/06/16 15:22:12;;;;;;;5.43;2.60;;;21.10;63.70;;;;;;4756276;30;20043;-78
2022/06/16 15:24:44;;;;;;;5.93;2.78;;;21.10;63.90;;;;;;4775257;30;20051;-74
2022/06/16 15:27:11;;;;;;;14.40;2.47;;;21.10;64.10;;;;;;4775433;30;20336;-75
2022/06/16 15:29:45;;;;;;;6.53;3.25;;;21.10;64.20;;;;;;4758816;30;20059;-71
2022/06/16 18:40:08;;;;;;;7.35;4.65;;;20.90;61.60;;;;;;5533833;24;20044;-74
2022/06/16 18:42:34;;;;;;;132.90;11.13;;;20.90;60.90;;;;;;4736512;30;20122;-74
2022/06/16 18:45:02;;;;;;;24.23;4.70;;;20.90;61.80;;;;;;4742060;30;20029;-82
2022/06/16 18:47:32;;;;;;;8.00;3.95;;;20.90;61.20;;;;;;4767429;30;20052;-77
2022/06/16 18:54:11;;;;;;;5.55;3.28;;;20.80;61.00;;;;;;4771553;30;20511;-81
2022/06/16 19:00:26;;;;;;;5.43;3.45;;;20.70;61.00;;;;;;4738812;30;20052;-79
2022/06/16 19:04:21;;;;;;;5.65;3.80;;;20.70;61.20;;;;;;4720131;30;20148;-82
2022/06/16 19:07:01;;;;;;;5.18;2.90;;;20.70;61.50;;;;;;4692436;30;20049;-82
2022/06/16 19:09:27;;;;;;;6.13;3.78;;;20.60;61.80;;;;;;4685404;30;20230;-80
2022/06/16 19:14:42;;;;;;;4.95;3.63;;;20.50;62.10;;;;;;4757563;30;20040;-77
2022/06/16 19:17:14;;;;;;;4.07;2.75;;;20.50;62.30;;;;;;4757854;30;20056;-75
2022/06/16 19:19:43;;;;;;;6.43;3.42;;;20.50;62.40;;;;;;4757538;30;20095;-76
2022/06/16 19:22:09;;;;;;;4.88;2.80;;;20.50;62.30;;;;;;4759313;30;20105;-81
2022/06/16 19:24:35;;;;;;;3.95;3.08;;;20.40;62.60;;;;;;4757789;30;20452;-78
2022/06/16 19:27:01;;;;;;;5.70;3.78;;;20.40;62.70;;;;;;4757470;30;20063;-79
2022/06/16 19:29:28;;;;;;;5.97;3.63;;;20.40;62.90;;;;;;4756500;30;20094;-79
2022/06/16 19:31:54;;;;;;;5.93;3.58;;;20.30;63.10;;;;;;4757641;30;20056;-79
2022/06/16 19:34:19;;;;;;;6.93;3.88;;;20.30;63.40;;;;;;4757241;30;20434;-80
2022/06/16 19:36:45;;;;;;;7.55;3.88;;;20.20;63.40;;;;;;4757161;30;20056;-79
2022/06/16 19:39:15;;;;;;;6.25;3.22;;;20.20;63.60;;;;;;4758260;30;20392;-80
2022/06/16 19:41:45;;;;;;;5.53;3.78;;;20.20;63.70;;;;;;4770528;30;20142;-80
2022/06/16 19:53:05;;;;;;;5.57;4.47;;;20.00;64.70;;;;;;4741188;30;20376;-84
2022/06/16 19:55:34;;;;;;;5.95;5.28;;;20.00;64.80;;;;;;4727358;30;20063;-82
2022/06/16 19:58:03;;;;;;;11.23;5.57;;;19.90;64.90;;;;;;4740787;30;20149;-84
2022/06/16 20:00:38;;;;;;;5.68;4.20;;;19.90;65.00;;;;;;4727291;30;20047;-81
2022/06/16 20:03:16;;;;;;;6.78;4.35;;;19.90;65.40;;;;;;4737898;30;20055;-85
2022/06/16 20:05:49;;;;;;;7.07;4.30;;;19.80;65.10;;;;;;4744085;30;20136;-83
2022/06/16 20:08:16;;;;;;;9.13;4.60;;;19.80;65.20;;;;;;4757978;30;20048;-82
2022/06/16 20:10:47;;;;;;;6.18;4.57;;;19.80;65.10;;;;;;4741514;30;20059;-83
2022/06/16 20:13:44;;;;;;;7.40;4.90;;;19.80;65.00;;;;;;4744683;30;20091;-83
2022/06/16 20:16:19;;;;;;;6.32;4.55;;;19.80;65.10;;;;;;4745129;30;20083;-85
2022/06/16 20:19:19;;;;;;;5.10;4.05;;;19.80;65.40;;;;;;4744128;30;20044;-84
2022/06/16 20:22:24;;;;;;;6.18;4.15;;;19.70;65.80;;;;;;4759182;30;20079;-85
2022/06/16 20:28:28;;;;;;;6.82;4.93;;;19.70;66.30;;;;;;4740438;30;20078;-86
2022/06/16 20:31:18;;;;;;;6.15;5.00;;;19.60;66.40;;;;;;4740911;30;20062;-86
2022/06/16 20:33:55;;;;;;;7.55;5.85;;;19.60;66.40;;;;;;4739949;30;20056;-84
2022/06/16 20:36:25;;;;;;;7.63;5.85;;;19.50;66.30;;;;;;4753724;30;20067;-83
2022/06/16 20:39:19;;;;;;;6.00;4.65;;;19.50;66.40;;;;;;4758104;30;20043;-85
2022/06/16 20:44:34;;;;;;;5.78;4.10;;;19.40;66.80;;;;;;4773610;30;19985;-84
